createdAt,value
2019-02-15T00:01:51.807Z,102177.17
2019-02-15T00:04:55.260Z,102175.40
2019-02-15T00:07:58.774Z,102172.80
2019-02-15T00:11:02.264Z,102173.20
2019-02-15T00:14:05.760Z,102175.85
2019-02-15T00:17:10.413Z,102166.17
2019-02-15T00:20:19.715Z,102163.52
2019-02-15T00:23:23.294Z,102164.42
2019-02-15T00:26:27.765Z,102166.69
2019-02-15T00:29:31.276Z,102163.64
2019-02-15T00:32:34.758Z,102165.41
2019-02-15T00:35:38.259Z,102167.22
2019-02-15T00:38:41.752Z,102168.94
2019-02-15T00:41:45.254Z,102168.94
2019-02-15T00:44:49.786Z,102157.52
2019-02-15T00:48:01.170Z,102163.30
2019-02-15T00:51:12.806Z,102164.69
2019-02-15T00:54:22.168Z,102166.13
2019-02-15T00:57:47.410Z,102161.21
2019-02-15T01:00:59.416Z,102162.54
2019-02-15T01:04:09.679Z,102160.82
2019-02-15T01:07:21.058Z,102166.63
2019-02-15T01:10:42.476Z,102164.38
2019-02-15T01:13:46.080Z,102167.02
2019-02-15T01:16:50.605Z,102168.34
2019-02-15T01:19:56.181Z,102164.91
2019-02-15T01:22:59.660Z,102163.14
2019-02-15T01:26:31.186Z,102158.28
2019-02-15T01:29:48.085Z,102167.95
2019-02-15T01:33:16.692Z,102170.22
2019-02-15T01:36:27.995Z,102166.63
2019-02-15T01:39:40.920Z,102161.33
2019-02-15T01:42:51.076Z,102165.25
2019-02-15T01:46:08.009Z,102165.70
2019-02-15T01:49:12.520Z,102157.83
2019-02-15T01:52:16.111Z,102162.26
2019-02-15T01:55:19.760Z,102162.26
2019-02-15T01:58:24.250Z,102160.11
2019-02-15T02:01:28.770Z,102161.87
2019-02-15T02:04:32.281Z,102162.77
2019-02-15T02:07:36.912Z,102155.75
2019-02-15T02:10:40.392Z,102156.56
2019-02-15T02:13:49.599Z,102152.64
2019-02-15T02:16:50.483Z,102148.72
2019-02-15T02:19:55.111Z,102153.60
2019-02-15T02:22:58.616Z,102144.80
2019-02-15T02:26:02.061Z,102147.91
2019-02-15T02:29:06.636Z,102140.48
2019-02-15T02:32:10.140Z,102137.84
2019-02-15T02:35:13.655Z,102140.88
2019-02-15T02:38:17.243Z,102137.41
2019-02-15T02:41:20.831Z,102134.31
2019-02-15T02:44:25.382Z,102136.96
2019-02-15T02:47:28.910Z,102129.46
2019-02-15T02:50:32.385Z,102126.75
2019-02-15T02:53:35.864Z,102129.94
2019-02-15T02:56:39.376Z,102121.50
2019-02-15T02:59:42.875Z,102125.09
2019-02-15T03:02:46.370Z,102127.23
2019-02-15T03:05:49.863Z,102118.85
2019-02-15T03:08:53.382Z,102117.14
2019-02-15T03:11:56.879Z,102111.78
2019-02-15T03:15:00.585Z,102113.98
2019-02-15T03:18:04.373Z,102121.50
2019-02-15T03:21:07.982Z,102116.20
2019-02-15T03:24:11.485Z,102122.83
2019-02-15T03:27:17.038Z,102117.59
2019-02-15T03:30:20.695Z,102122.89
2019-02-15T03:33:24.251Z,102116.75
2019-02-15T03:36:52.924Z,102117.64
2019-02-15T03:40:02.068Z,102119.39
2019-02-15T03:43:05.700Z,102126.92
2019-02-15T03:46:09.170Z,102126.92
2019-02-15T03:49:13.710Z,102128.30
2019-02-15T03:52:17.191Z,102126.92
2019-02-15T03:55:20.703Z,102125.20
2019-02-15T03:58:24.209Z,102121.23
2019-02-15T04:01:28.727Z,102121.34
2019-02-15T04:04:32.229Z,102120.44
2019-02-15T04:07:35.717Z,102119.62
2019-02-15T04:10:39.214Z,102119.62
2019-02-15T04:13:42.744Z,102121.40
2019-02-15T04:16:46.229Z,102121.34
2019-02-15T04:19:49.723Z,102126.25
2019-02-15T04:22:53.221Z,102118.69
2019-02-15T04:25:56.722Z,102116.97
2019-02-15T04:29:00.243Z,102116.52
2019-02-15T04:32:04.748Z,102115.14
2019-02-15T04:35:08.430Z,102115.14
2019-02-15T04:38:11.959Z,102114.32
2019-02-15T04:41:15.450Z,102119.11
2019-02-15T04:44:19.979Z,102117.80
2019-02-15T04:47:23.495Z,102118.30
2019-02-15T04:50:26.994Z,102121.34
2019-02-15T04:53:30.489Z,102116.16
2019-02-15T04:56:33.975Z,102110.85
2019-02-15T04:59:38.512Z,102113.98
2019-02-15T05:02:44.081Z,102105.55
2019-02-15T05:05:48.593Z,102115.70
2019-02-15T05:08:52.097Z,102116.16
2019-02-15T05:11:55.594Z,102124.11
2019-02-15T05:14:59.201Z,102115.77
2019-02-15T05:18:02.834Z,102118.02
2019-02-15T05:21:06.294Z,102113.62
2019-02-15T05:24:09.812Z,102124.64
2019-02-15T05:27:13.322Z,102117.20
2019-02-15T05:30:17.866Z,102117.20
2019-02-15T05:33:21.323Z,102120.72
2019-02-15T05:36:24.835Z,102122.50
2019-02-15T05:39:28.320Z,102119.84
2019-02-15T05:42:31.851Z,102123.44
2019-02-15T05:45:35.326Z,102119.84
2019-02-15T05:48:38.825Z,102119.91
2019-02-15T05:51:43.367Z,102114.55
2019-02-15T05:54:47.061Z,102119.84
2019-02-15T05:57:50.556Z,102126.08
2019-02-15T06:00:54.074Z,102125.63
2019-02-15T06:03:58.692Z,102128.20
2019-02-15T06:07:02.304Z,102130.84
2019-02-15T06:10:05.967Z,102130.94
2019-02-15T06:13:10.525Z,102131.38
2019-02-15T06:16:14.092Z,102132.70
2019-02-15T06:19:18.549Z,102132.70
2019-02-15T06:22:22.046Z,102136.69
2019-02-15T06:25:25.665Z,102134.48
2019-02-15T06:28:29.249Z,102134.97
2019-02-15T06:31:34.807Z,102138.45
2019-02-15T06:34:38.308Z,102137.67
2019-02-15T06:37:41.816Z,102142.48
2019-02-15T06:40:45.313Z,102143.81
2019-02-15T06:43:48.805Z,102144.69
2019-02-15T06:46:52.305Z,102142.09
2019-02-15T06:49:56.830Z,102148.33
2019-02-15T06:53:01.359Z,102146.13
2019-02-15T06:56:04.853Z,102150.05
2019-02-15T06:59:27.234Z,102149.23
2019-02-15T07:02:46.478Z,102148.33
2019-02-15T07:05:49.978Z,102151.42
2019-02-15T07:08:54.488Z,102152.70
2019-02-15T07:11:59.015Z,102150.98
2019-02-15T07:15:05.083Z,102154.13
2019-02-15T07:18:08.735Z,102158.98
2019-02-15T07:21:12.398Z,102162.03
2019-02-15T07:24:15.884Z,102165.56
2019-02-15T07:27:20.405Z,102165.95
2019-02-15T07:30:23.929Z,102165.13
2019-02-15T07:33:27.401Z,102172.18
2019-02-15T07:36:30.922Z,102167.27
2019-02-15T07:39:34.412Z,102163.30
2019-02-15T07:42:39.954Z,102167.72
2019-02-15T07:45:43.478Z,102170.32
2019-02-15T07:48:46.959Z,102162.91
2019-02-15T07:51:50.472Z,102159.83
2019-02-15T07:54:53.965Z,102164.23
2019-02-15T07:57:57.502Z,102155.45
2019-02-15T08:01:00.982Z,102154.53
2019-02-15T08:04:06.891Z,102157.17
2019-02-15T08:07:10.648Z,102154.13
2019-02-15T08:10:14.150Z,102155.34
2019-02-15T08:13:17.617Z,102159.72
2019-02-15T08:16:22.204Z,102156.02
2019-02-15T08:19:25.717Z,102151.15
2019-02-15T08:22:29.485Z,102147.06
2019-02-15T08:25:33.077Z,102152.25
2019-02-15T08:28:36.582Z,102151.27
2019-02-15T08:31:40.089Z,102152.05
2019-02-15T08:34:43.677Z,102155.52
2019-02-15T08:37:47.276Z,102150.05
2019-02-15T08:40:50.777Z,102147.28
2019-02-15T08:43:54.275Z,102155.23
2019-02-15T08:46:57.799Z,102156.02
2019-02-15T08:50:01.518Z,102150.27
2019-02-15T08:53:06.014Z,102150.61
2019-02-15T08:56:09.530Z,102152.21
2019-02-15T08:59:13.050Z,102146.91
2019-02-15T09:02:19.659Z,102140.70
2019-02-15T09:05:23.289Z,102139.71
2019-02-15T09:08:26.840Z,102135.13
2019-02-15T09:11:30.302Z,102137.39
2019-02-15T09:14:33.820Z,102138.21
2019-02-15T09:17:37.334Z,102138.60
2019-02-15T09:20:40.814Z,102141.20
2019-02-15T09:23:44.305Z,102137.16
2019-02-15T09:26:48.615Z,102138.37
2019-02-15T09:29:53.157Z,102137.38
2019-02-15T09:32:57.686Z,102132.91
2019-02-15T09:36:01.194Z,102133.73
2019-02-15T09:39:05.799Z,102122.18
2019-02-15T09:42:10.481Z,102130.95
2019-02-15T09:45:14.125Z,102123.78
2019-02-15T09:48:17.653Z,102120.67
2019-02-15T09:51:21.136Z,102124.18
2019-02-15T09:54:24.641Z,102124.51
2019-02-15T09:57:30.181Z,102131.02
2019-02-15T10:00:33.737Z,102123.45
2019-02-15T10:03:39.225Z,102116.30
2019-02-15T10:06:42.796Z,102121.49
2019-02-15T10:09:46.451Z,102119.23
2019-02-15T10:12:49.963Z,102130.63
2019-02-15T10:15:53.454Z,102126.13
2019-02-15T10:18:56.973Z,102119.38
2019-02-15T10:22:00.453Z,102120.58
2019-02-15T10:25:04.041Z,102118.70
2019-02-15T10:28:07.663Z,102113.27
2019-02-15T10:31:11.148Z,102111.05
2019-02-15T10:34:14.677Z,102115.41
2019-02-15T10:37:18.167Z,102117.95
2019-02-15T10:40:21.648Z,102108.11
2019-02-15T10:43:26.213Z,102105.33
2019-02-15T10:46:37.686Z,102114.88
2019-02-15T10:49:36.158Z,102110.31
2019-02-15T10:52:39.754Z,102111.09
2019-02-15T10:55:44.272Z,102098.95
2019-02-15T10:58:47.771Z,102096.30
2019-02-15T11:01:51.349Z,102093.52
2019-02-15T11:04:55.784Z,102098.25
2019-02-15T11:07:59.319Z,102093.27
2019-02-15T11:11:02.813Z,102090.28
2019-02-15T11:14:06.323Z,102088.53
2019-02-15T11:17:10.873Z,102089.41
2019-02-15T11:20:14.432Z,102091.13
2019-02-15T11:23:18.040Z,102087.40
2019-02-15T11:26:24.696Z,102082.96
2019-02-15T11:29:27.131Z,102085.62
2019-02-15T11:32:30.594Z,102086.42
2019-02-15T11:35:34.121Z,102076.58
2019-02-15T11:38:37.804Z,102080.11
2019-02-15T11:41:41.627Z,102075.19
2019-02-15T11:44:46.236Z,102059.64
2019-02-15T11:47:49.853Z,102054.78
2019-02-15T11:50:53.435Z,102049.79
2019-02-15T11:53:58.640Z,102048.85
2019-02-15T11:57:02.272Z,102050.50
2019-02-15T12:00:13.951Z,102049.59
2019-02-15T12:03:11.951Z,102049.03
2019-02-15T12:06:16.482Z,102045.47
2019-02-15T12:09:21.034Z,102051.17
2019-02-15T12:12:24.554Z,102047.05
2019-02-15T12:15:28.023Z,102044.39
2019-02-15T12:18:31.542Z,102038.59
2019-02-15T12:21:34.995Z,102038.70
2019-02-15T12:24:39.525Z,102033.77
2019-02-15T12:27:43.035Z,102030.17
2019-02-15T12:30:46.904Z,102029.78
2019-02-15T12:33:50.561Z,102029.65
2019-02-15T12:36:54.209Z,102025.11
2019-02-15T12:39:57.916Z,102024.20
2019-02-15T12:43:01.648Z,102017.00
2019-02-15T12:46:05.331Z,102016.86
2019-02-15T12:49:09.124Z,102019.38
2019-02-15T12:52:12.741Z,102015.33
2019-02-15T12:55:16.462Z,102011.27
2019-02-15T12:58:20.291Z,102007.53
2019-02-15T13:01:23.875Z,102007.92
2019-02-15T13:04:27.539Z,101996.83
2019-02-15T13:07:31.742Z,101999.28
2019-02-15T13:10:38.006Z,101998.48
2019-02-15T13:13:41.495Z,101989.56
2019-02-15T13:16:44.970Z,101989.56
2019-02-15T13:19:48.485Z,101985.43
2019-02-15T13:22:53.021Z,101988.89
2019-02-15T13:25:56.571Z,101981.69
2019-02-15T13:29:00.044Z,101978.50
2019-02-15T13:32:03.522Z,101973.19
2019-02-15T13:35:08.040Z,101970.39
2019-02-15T13:38:11.556Z,101965.84
2019-02-15T13:41:15.377Z,101965.00
2019-02-15T13:44:19.007Z,101962.89
2019-02-15T13:47:23.490Z,101957.64
2019-02-15T13:50:27.062Z,101955.72
2019-02-15T13:53:30.483Z,101960.09
2019-02-15T13:56:33.991Z,101954.23
2019-02-15T13:59:39.086Z,101955.00
2019-02-15T14:02:42.638Z,101943.04
2019-02-15T14:05:46.130Z,101940.31
2019-02-15T14:08:49.647Z,101940.27
2019-02-15T14:11:53.116Z,101939.73
2019-02-15T14:14:56.642Z,101933.09
2019-02-15T14:18:00.139Z,101930.44
2019-02-15T14:21:03.660Z,101920.56
2019-02-15T14:24:07.177Z,101920.03
2019-02-15T14:27:10.650Z,101925.73
2019-02-15T14:30:14.162Z,101917.75
2019-02-15T14:33:17.617Z,101916.19
2019-02-15T14:36:21.157Z,101914.63
2019-02-15T14:39:24.681Z,101913.41
2019-02-15T14:42:29.152Z,101906.91
2019-02-15T14:45:32.643Z,101906.11
2019-02-15T14:48:36.160Z,101895.66
2019-02-15T14:51:39.654Z,101896.58
2019-02-15T14:54:43.162Z,101894.86
2019-02-15T14:57:47.688Z,101891.02
2019-02-15T15:00:51.184Z,101881.87
2019-02-15T15:03:56.084Z,101886.80
2019-02-15T15:06:59.763Z,101882.02
2019-02-15T15:10:03.727Z,101879.42
2019-02-15T15:13:07.236Z,101876.88
2019-02-15T15:16:10.735Z,101873.87
2019-02-15T15:19:14.477Z,101868.63
2019-02-15T15:22:17.955Z,101865.59
2019-02-15T15:25:21.447Z,101855.11
2019-02-15T15:28:24.978Z,101854.34
2019-02-15T15:31:28.452Z,101854.88
2019-02-15T15:34:34.059Z,101852.75
2019-02-15T15:37:39.145Z,101851.11
2019-02-15T15:40:43.662Z,101847.54
2019-02-15T15:43:50.264Z,101842.03
2019-02-15T15:46:53.746Z,101842.09
2019-02-15T15:49:58.358Z,101840.45
2019-02-15T15:53:01.970Z,101839.63
2019-02-15T15:56:05.508Z,101836.16
2019-02-15T15:59:09.011Z,101833.13
2019-02-15T16:02:13.287Z,101825.08
2019-02-15T16:05:17.831Z,101818.44
2019-02-15T16:08:21.363Z,101825.08
2019-02-15T16:11:25.839Z,101825.84
2019-02-15T16:14:29.349Z,101821.09
2019-02-15T16:17:32.780Z,101829.06
2019-02-15T16:20:36.357Z,101833.05
2019-02-15T16:23:39.865Z,101836.16
2019-02-15T16:26:43.364Z,101835.71
2019-02-15T16:29:48.182Z,101840.60
2019-02-15T16:32:51.795Z,101841.09
2019-02-15T16:35:55.298Z,101843.97
2019-02-15T16:38:58.774Z,101849.28
2019-02-15T16:42:02.295Z,101844.11
2019-02-15T16:45:06.549Z,101843.31
2019-02-15T16:48:11.249Z,101840.83
2019-02-15T16:51:16.871Z,101844.89
2019-02-15T16:54:20.371Z,101848.88
2019-02-15T16:57:23.864Z,101854.18
2019-02-15T17:00:27.395Z,101848.48
2019-02-15T17:03:30.879Z,101855.12
2019-02-15T17:06:36.467Z,101858.73
2019-02-15T17:09:41.012Z,101857.02
2019-02-15T17:12:44.666Z,101862.22
2019-02-15T17:15:48.195Z,101867.53
2019-02-15T17:18:52.398Z,101865.27
2019-02-15T17:21:56.024Z,101863.94
2019-02-15T17:24:59.507Z,101866.06
2019-02-15T17:28:03.023Z,101861.28
2019-02-15T17:31:08.527Z,101865.65
2019-02-15T17:34:13.108Z,101863.48
2019-02-15T17:37:20.071Z,101870.12
2019-02-15T17:40:23.548Z,101868.30
2019-02-15T17:43:27.036Z,101867.46
2019-02-15T17:46:30.561Z,101867.92
2019-02-15T17:49:35.076Z,101860.89
2019-02-15T17:52:38.580Z,101858.62
2019-02-15T17:55:43.094Z,101856.91
2019-02-15T17:58:46.602Z,101858.69
2019-02-15T18:01:51.131Z,101860.44
2019-02-15T18:04:54.639Z,101857.75
2019-02-15T18:07:58.152Z,101863.94
2019-02-15T18:11:01.636Z,101863.94
2019-02-15T18:14:05.132Z,101863.94
2019-02-15T18:17:09.656Z,101859.50
2019-02-15T18:20:13.186Z,101859.56
2019-02-15T18:23:17.664Z,101859.56
2019-02-15T18:26:21.232Z,101858.23
2019-02-15T18:29:24.905Z,101853.70
2019-02-15T18:32:28.399Z,101860.75
2019-02-15T18:35:31.913Z,101859.80
2019-02-15T18:38:36.458Z,101860.27
2019-02-15T18:41:49.790Z,101853.63
2019-02-15T18:44:50.403Z,101853.70
2019-02-15T18:47:53.889Z,101850.20
2019-02-15T18:51:01.527Z,101851.59
2019-02-15T18:54:07.032Z,101855.02
2019-02-15T18:57:10.536Z,101855.97
2019-02-15T19:00:17.887Z,101855.97
2019-02-15T19:03:29.439Z,101855.09
2019-02-15T19:06:33.942Z,101856.91
2019-02-15T19:09:37.419Z,101850.66
2019-02-15T19:12:40.943Z,101857.30
2019-02-15T19:15:44.460Z,101855.97
2019-02-15T19:18:48.115Z,101849.82
2019-02-15T19:21:51.669Z,101854.25
2019-02-15T19:24:56.161Z,101847.13
2019-02-15T19:27:59.668Z,101844.47
2019-02-15T19:31:04.218Z,101844.95
2019-02-15T19:34:08.704Z,101839.64
2019-02-15T19:37:13.253Z,101844.50
2019-02-15T19:40:16.825Z,101841.02
2019-02-15T19:43:20.556Z,101848.11
2019-02-15T19:46:24.171Z,101845.45
2019-02-15T19:49:27.668Z,101841.08
2019-02-15T19:52:32.262Z,101851.70
2019-02-15T19:55:35.883Z,101847.66
2019-02-15T19:58:43.664Z,101840.14
2019-02-15T20:01:44.768Z,101842.34
2019-02-15T20:04:48.233Z,101837.48
2019-02-15T20:07:51.743Z,101832.55
2019-02-15T20:10:55.221Z,101837.37
2019-02-15T20:14:00.164Z,101827.70
2019-02-15T20:17:03.880Z,101829.41
2019-02-15T20:20:08.941Z,101835.59
2019-02-15T20:23:12.515Z,101831.53
2019-02-15T20:26:17.070Z,101830.20
2019-02-15T20:29:20.549Z,101831.92
2019-02-15T20:32:26.111Z,101835.98
2019-02-15T20:35:29.600Z,101835.52
2019-02-15T20:38:34.117Z,101829.41
2019-02-15T20:41:37.609Z,101829.90
2019-02-15T20:44:41.164Z,101830.08
2019-02-15T20:47:45.650Z,101831.55
2019-02-15T20:50:49.156Z,101834.34
2019-02-15T20:53:52.671Z,101831.38
2019-02-15T20:56:57.155Z,101831.03
2019-02-15T21:00:02.109Z,101827.61
2019-02-15T21:03:05.650Z,101820.66
2019-02-15T21:06:11.145Z,101816.32
2019-02-15T21:09:14.689Z,101808.92
2019-02-15T21:12:18.180Z,101806.79
2019-02-15T21:15:21.664Z,101808.25
2019-02-15T21:18:26.200Z,101801.77
2019-02-15T21:21:29.759Z,101801.38
2019-02-15T21:24:33.540Z,101801.52
2019-02-15T21:27:37.115Z,101804.23
2019-02-15T21:30:40.615Z,101797.75
2019-02-15T21:33:44.086Z,101795.58
2019-02-15T21:36:47.609Z,101792.54
2019-02-15T21:39:51.109Z,101795.58
2019-02-15T21:42:54.610Z,101791.67
2019-02-15T21:45:58.048Z,101788.95
2019-02-15T21:49:01.592Z,101784.96
2019-02-15T21:52:05.093Z,101785.91
2019-02-15T21:55:11.963Z,101771.77
2019-02-15T21:58:15.420Z,101773.09
2019-02-15T22:01:19.889Z,101767.33
2019-02-15T22:04:23.393Z,101766.52
2019-02-15T22:07:26.914Z,101762.16
2019-02-15T22:10:30.408Z,101765.72
2019-02-15T22:13:34.991Z,101769.32
2019-02-15T22:16:38.554Z,101768.45
2019-02-15T22:19:42.038Z,101761.36
2019-02-15T22:22:45.548Z,101760.03
2019-02-15T22:25:49.041Z,101756.19
2019-02-15T22:28:52.667Z,101757.52
2019-02-15T22:31:58.216Z,101756.75
2019-02-15T22:35:01.672Z,101755.08
2019-02-15T22:38:05.319Z,101747.60
2019-02-15T22:41:14.114Z,101753.44
2019-02-15T22:44:17.615Z,101754.38
2019-02-15T22:47:21.241Z,101748.27
2019-02-15T22:50:24.714Z,101754.06
2019-02-15T22:53:28.192Z,101750.15
2019-02-15T22:56:31.720Z,101749.34
2019-02-15T22:59:35.166Z,101744.98
2019-02-15T23:02:39.599Z,101745.92
2019-02-15T23:05:43.152Z,101741.52
2019-02-15T23:08:46.693Z,101739.02
2019-02-15T23:11:52.134Z,101729.20
2019-02-15T23:14:55.744Z,101730.53
2019-02-15T23:17:59.215Z,101737.55
2019-02-15T23:21:04.844Z,101741.52
2019-02-15T23:24:09.383Z,101731.86
2019-02-15T23:27:14.917Z,101731.47
2019-02-15T23:30:19.358Z,101742.85
2019-02-15T23:33:22.846Z,101734.52
2019-02-15T23:36:26.364Z,101734.52
2019-02-15T23:39:29.853Z,101734.52
2019-02-15T23:42:33.311Z,101730.14
2019-02-15T23:45:36.779Z,101734.52
2019-02-15T23:48:40.260Z,101731.05
2019-02-15T23:51:43.786Z,101738.56
2019-02-15T23:54:47.254Z,101727.49
2019-02-15T23:57:51.760Z,101733.70
